Time;durP1;ratioP1;P1;durP2;ratioP2;P2;SDS_P1;SDS_P2;PMS_P1;PMS_P2;Temp;Humidity;BMP_temperature;BMP_pressure;BME280_temperature;BME280_humidity;BME280_pressure;Samples;Min_cycle;Max_cycle;Signal;HPM_P1;HPM_P2
2022/03/29 00:01:27;;;;;;;51.57;36.63;;;9.00;85.60;;;;;;5053319;28;20288;-70
2022/03/29 00:03:54;;;;;;;50.23;36.53;;;9.00;84.90;;;;;;5067514;28;20226;-70
2022/03/29 00:06:21;;;;;;;48.53;34.30;;;9.10;85.20;;;;;;5073343;28;20226;-70
2022/03/29 00:08:48;;;;;;;48.93;34.93;;;9.00;84.40;;;;;;5058748;28;20261;-70
2022/03/29 00:11:17;;;;;;;49.77;35.13;;;9.00;83.70;;;;;;5073883;28;20255;-70
2022/03/29 00:13:45;;;;;;;51.50;35.97;;;9.00;83.70;;;;;;5062018;28;20299;-70
2022/03/29 00:16:12;;;;;;;52.83;35.97;;;9.00;83.30;;;;;;5058454;28;20207;-70
2022/03/29 00:18:39;;;;;;;51.57;35.93;;;9.00;83.40;;;;;;5074351;28;20229;-70
2022/03/29 00:21:06;;;;;;;51.93;35.33;;;9.00;83.30;;;;;;5060384;28;20207;-70
2022/03/29 00:23:33;;;;;;;53.90;36.23;;;9.00;83.40;;;;;;5058609;28;20194;-70
2022/03/29 00:26:01;;;;;;;47.80;33.63;;;8.90;83.30;;;;;;5062509;28;20650;-70
2022/03/29 00:28:28;;;;;;;45.03;33.17;;;8.90;83.50;;;;;;5064151;28;20259;-70
2022/03/29 00:30:55;;;;;;;49.33;33.43;;;8.90;83.00;;;;;;5069331;28;20236;-70
2022/03/29 00:33:22;;;;;;;49.10;33.30;;;8.90;82.70;;;;;;5072221;28;20513;-70
2022/03/29 00:35:49;;;;;;;57.37;35.83;;;8.90;82.50;;;;;;5067185;28;20702;-70
2022/03/29 00:38:16;;;;;;;48.57;34.80;;;8.90;82.50;;;;;;5059151;28;20241;-70
2022/03/29 00:40:43;;;;;;;45.80;33.67;;;8.80;82.80;;;;;;5059681;28;20506;-70
2022/03/29 00:43:11;;;;;;;40.97;30.33;;;8.80;82.70;;;;;;5065268;28;20229;-70
2022/03/29 00:45:38;;;;;;;41.93;29.80;;;8.80;81.40;;;;;;5071721;28;20237;-70
2022/03/29 00:48:08;;;;;;;40.33;29.23;;;8.70;80.30;;;;;;5059451;28;20250;-70
2022/03/29 00:50:38;;;;;;;45.10;30.90;;;8.70;79.40;;;;;;5062981;28;20304;-70
2022/03/29 00:53:06;;;;;;;47.10;31.60;;;8.70;79.20;;;;;;5063754;28;20199;-70
2022/03/29 00:55:33;;;;;;;48.53;32.57;;;8.60;79.50;;;;;;5071432;28;20210;-70
2022/03/29 00:58:06;;;;;;;46.27;32.33;;;8.60;79.20;;;;;;5040365;28;20245;-70
2022/03/29 01:00:35;;;;;;;43.40;30.07;;;8.60;79.20;;;;;;5052693;28;20241;-70
2022/03/29 01:03:03;;;;;;;41.73;30.87;;;8.60;78.90;;;;;;5056467;28;20284;-70
2022/03/29 01:05:30;;;;;;;43.90;32.33;;;8.60;78.30;;;;;;5071347;28;20209;-70
2022/03/29 01:07:59;;;;;;;44.70;30.80;;;8.60;78.20;;;;;;5062839;28;20700;-70
2022/03/29 01:10:27;;;;;;;46.10;33.40;;;8.60;78.70;;;;;;5067888;28;20245;-70
2022/03/29 01:12:55;;;;;;;46.33;33.03;;;8.70;79.60;;;;;;5071967;28;20197;-70
2022/03/29 01:15:26;;;;;;;45.07;33.03;;;8.70;80.60;;;;;;5060590;28;20334;-70
2022/03/29 01:17:54;;;;;;;47.50;33.93;;;8.70;81.00;;;;;;5058419;28;20222;-70
2022/03/29 01:20:25;;;;;;;47.50;33.33;;;8.80;81.40;;;;;;5058321;28;20248;-70
2022/03/29 01:22:53;;;;;;;46.50;33.13;;;8.90;82.00;;;;;;5065079;28;20226;-70
2022/03/29 01:25:42;;;;;;;49.53;35.20;;;8.90;82.50;;;;;;5069553;28;20212;-70
2022/03/29 01:28:11;;;;;;;43.87;33.13;;;9.00;83.10;;;;;;5072881;28;20289;-70
2022/03/29 01:30:39;;;;;;;46.90;34.90;;;9.00;83.20;;;;;;5059154;28;20601;-70
2022/03/29 01:33:07;;;;;;;57.40;35.73;;;9.10;83.40;;;;;;5066184;28;20207;-70
2022/03/29 01:35:35;;;;;;;50.07;34.23;;;9.20;83.70;;;;;;5069601;28;20284;-70
2022/03/29 01:38:02;;;;;;;50.43;36.67;;;9.30;84.10;;;;;;5068269;28;20308;-70
2022/03/29 01:40:29;;;;;;;52.33;35.10;;;9.30;84.40;;;;;;5065493;28;20206;-70
2022/03/29 01:42:59;;;;;;;46.13;34.80;;;9.40;84.70;;;;;;5059553;28;20706;-70
2022/03/29 01:45:29;;;;;;;48.97;35.17;;;9.50;84.40;;;;;;5072542;28;20207;-70
2022/03/29 01:47:56;;;;;;;47.53;34.83;;;9.50;84.00;;;;;;5064622;28;20228;-70
2022/03/29 01:50:24;;;;;;;47.57;34.37;;;9.60;84.00;;;;;;5057563;28;20285;-70
2022/03/29 01:52:51;;;;;;;52.60;35.07;;;9.60;84.00;;;;;;5073119;28;20282;-70
2022/03/29 01:55:20;;;;;;;44.43;35.23;;;9.60;84.30;;;;;;5069063;28;20269;-70
2022/03/29 01:57:49;;;;;;;49.73;35.57;;;9.70;84.50;;;;;;5067410;28;20216;-70
2022/03/29 02:00:34;;;;;;;50.70;36.60;;;9.80;84.50;;;;;;5075776;28;20194;-70
2022/03/29 02:03:05;;;;;;;47.70;36.37;;;9.80;84.80;;;;;;5067491;28;20267;-70
2022/03/29 02:05:32;;;;;;;52.50;37.40;;;9.90;84.90;;;;;;5071580;28;20299;-70
2022/03/29 02:08:00;;;;;;;48.27;36.00;;;10.00;84.90;;;;;;5057778;28;20234;-70
2022/03/29 02:10:28;;;;;;;49.37;36.33;;;10.00;84.80;;;;;;5068964;28;20239;-70
2022/03/29 02:12:56;;;;;;;51.63;36.00;;;10.10;84.70;;;;;;5071944;28;20237;-70
2022/03/29 02:15:23;;;;;;;51.90;37.37;;;10.10;84.50;;;;;;5073432;28;20288;-70
2022/03/29 02:17:50;;;;;;;51.50;37.50;;;10.10;84.40;;;;;;5064071;28;20607;-70
2022/03/29 02:20:20;;;;;;;64.60;40.50;;;10.10;84.40;;;;;;5065608;28;20204;-70
2022/03/29 02:22:47;;;;;;;55.10;39.30;;;10.10;84.70;;;;;;5066712;28;20278;-70
2022/03/29 02:25:15;;;;;;;52.33;38.37;;;10.10;85.50;;;;;;5071341;28;20206;-70
2022/03/29 02:27:44;;;;;;;52.63;37.03;;;10.10;85.60;;;;;;5059989;28;20198;-70
2022/03/29 02:30:14;;;;;;;55.90;37.50;;;10.20;85.60;;;;;;5065932;28;20206;-70
2022/03/29 02:32:41;;;;;;;54.40;37.57;;;10.20;85.40;;;;;;5069727;28;20203;-70
2022/03/29 02:35:09;;;;;;;64.40;41.80;;;10.20;85.30;;;;;;5064094;28;20291;-70
2022/03/29 02:37:37;;;;;;;69.07;40.53;;;10.20;85.40;;;;;;5070605;28;20233;-70
2022/03/29 02:40:06;;;;;;;75.23;43.97;;;10.20;85.70;;;;;;5071100;28;20622;-70
2022/03/29 02:42:43;;;;;;;72.27;43.27;;;10.20;86.70;;;;;;5062750;28;20234;-70
2022/03/29 02:45:18;;;;;;;81.13;42.77;;;10.20;87.10;;;;;;5066144;28;20227;-70
2022/03/29 02:47:47;;;;;;;77.53;45.03;;;10.10;87.60;;;;;;5061770;28;20217;-70
2022/03/29 02:50:15;;;;;;;81.40;46.37;;;10.10;88.00;;;;;;5065949;28;20631;-70
2022/03/29 02:52:44;;;;;;;90.53;46.27;;;10.10;88.40;;;;;;5059932;28;20631;-70
2022/03/29 02:55:11;;;;;;;82.73;45.20;;;10.10;89.70;;;;;;5056165;28;20219;-70
2022/03/29 02:57:38;;;;;;;89.30;47.30;;;10.10;89.50;;;;;;5060995;28;20513;-70
2022/03/29 03:00:06;;;;;;;85.63;46.07;;;10.10;90.00;;;;;;5063353;28;20229;-70
2022/03/29 03:02:33;;;;;;;91.37;46.83;;;10.10;90.10;;;;;;5071697;28;20289;-70
2022/03/29 03:05:01;;;;;;;89.17;46.70;;;10.10;90.30;;;;;;5067121;28;20196;-70
2022/03/29 03:07:28;;;;;;;86.97;47.30;;;10.20;90.40;;;;;;5072432;28;20281;-70
2022/03/29 03:09:55;;;;;;;84.03;45.80;;;10.20;90.40;;;;;;5072084;28;20234;-70
2022/03/29 03:12:23;;;;;;;94.07;47.27;;;10.30;90.50;;;;;;5058185;28;20209;-70
2022/03/29 03:14:50;;;;;;;79.10;46.90;;;10.30;90.50;;;;;;5064599;28;20197;-70
2022/03/29 03:17:17;;;;;;;84.57;45.97;;;10.40;90.50;;;;;;5056576;28;20206;-70
2022/03/29 03:19:44;;;;;;;88.40;46.20;;;10.40;90.90;;;;;;5070438;28;20717;-70
2022/03/29 03:22:11;;;;;;;86.80;47.47;;;10.40;90.60;;;;;;5062999;28;20282;-70
2022/03/29 03:24:38;;;;;;;83.27;45.07;;;10.40;90.60;;;;;;5067341;28;20209;-70
2022/03/29 03:27:06;;;;;;;83.07;45.43;;;10.40;90.70;;;;;;5055131;28;20192;-70
2022/03/29 03:29:34;;;;;;;86.57;45.33;;;10.40;90.80;;;;;;5061005;28;20287;-70
2022/03/29 03:32:01;;;;;;;81.97;46.03;;;10.40;90.80;;;;;;5068232;28;20630;-70
2022/03/29 03:34:29;;;;;;;84.33;44.83;;;10.50;90.90;;;;;;5053466;28;20306;-70
2022/03/29 03:36:57;;;;;;;86.77;49.17;;;10.50;90.80;;;;;;5059792;28;20310;-70
2022/03/29 03:39:24;;;;;;;79.23;44.60;;;10.50;90.80;;;;;;5071847;28;20267;-70
2022/03/29 03:41:51;;;;;;;85.40;44.93;;;10.60;90.80;;;;;;5056168;28;20217;-70
2022/03/29 03:44:18;;;;;;;73.00;44.63;;;10.60;90.80;;;;;;5059794;28;20202;-70
2022/03/29 03:46:45;;;;;;;78.30;44.67;;;10.60;90.80;;;;;;5072524;28;20572;-70
2022/03/29 03:49:12;;;;;;;72.53;44.77;;;10.60;90.80;;;;;;5072674;28;20219;-70
2022/03/29 03:51:39;;;;;;;72.07;42.80;;;10.70;90.80;;;;;;5063893;28;20206;-70
2022/03/29 03:54:06;;;;;;;73.83;42.50;;;10.70;90.70;;;;;;5061583;28;20581;-70
2022/03/29 03:56:34;;;;;;;68.73;42.33;;;10.70;90.70;;;;;;5069388;28;20282;-70
2022/03/29 03:59:01;;;;;;;84.23;44.40;;;10.80;90.70;;;;;;5063266;28;20232;-71
2022/03/29 04:01:28;;;;;;;76.77;45.27;;;10.80;90.60;;;;;;5064836;28;20200;-70
2022/03/29 04:03:56;;;;;;;83.37;44.97;;;10.80;90.60;;;;;;5073964;28;20206;-71
2022/03/29 04:06:23;;;;;;;79.83;45.93;;;10.80;90.60;;;;;;5056835;28;20295;-71
2022/03/29 04:08:51;;;;;;;77.07;45.40;;;10.90;90.50;;;;;;5073109;28;20353;-70
2022/03/29 04:11:19;;;;;;;77.00;45.97;;;10.90;90.50;;;;;;5067463;28;20207;-71
2022/03/29 04:13:46;;;;;;;75.70;44.43;;;10.90;90.50;;;;;;5074039;28;20322;-71
2022/03/29 04:16:14;;;;;;;81.77;45.67;;;10.90;90.50;;;;;;5072546;28;20206;-71
2022/03/29 04:18:41;;;;;;;72.73;43.30;;;10.90;90.40;;;;;;5066385;28;20261;-71
2022/03/29 04:21:09;;;;;;;72.67;45.07;;;11.00;90.40;;;;;;5072829;28;20282;-71
2022/03/29 04:23:36;;;;;;;69.20;42.53;;;11.00;90.40;;;;;;5074153;28;20242;-71
2022/03/29 04:26:04;;;;;;;70.03;43.47;;;11.00;90.40;;;;;;5066972;28;20199;-71
2022/03/29 04:28:31;;;;;;;73.00;44.30;;;11.10;90.40;;;;;;5069916;28;20301;-71
2022/03/29 04:30:59;;;;;;;80.83;44.83;;;11.10;90.30;;;;;;5057984;28;20314;-71
2022/03/29 04:33:27;;;;;;;80.23;45.23;;;11.10;90.20;;;;;;5069488;28;20298;-71
2022/03/29 04:35:55;;;;;;;76.30;44.07;;;11.10;90.20;;;;;;5075012;28;20195;-71
2022/03/29 04:38:26;;;;;;;74.37;42.67;;;11.10;90.10;;;;;;5060836;28;20204;-70
2022/03/29 04:40:53;;;;;;;68.87;43.20;;;11.10;90.10;;;;;;5071835;28;20761;-70
2022/03/29 04:43:20;;;;;;;73.43;44.30;;;11.20;90.10;;;;;;5067073;28;20207;-69
2022/03/29 04:45:48;;;;;;;68.37;44.63;;;11.20;90.10;;;;;;5075288;28;20599;-71
2022/03/29 04:48:15;;;;;;;88.83;47.10;;;11.20;90.10;;;;;;5070738;28;20212;-71
2022/03/29 04:50:42;;;;;;;91.37;45.20;;;11.20;90.10;;;;;;5065836;28;20222;-71
2022/03/29 04:53:09;;;;;;;83.10;44.50;;;11.20;90.10;;;;;;5057928;28;20645;-71
2022/03/29 04:55:36;;;;;;;89.97;46.03;;;11.10;90.00;;;;;;5059851;28;20658;-71
2022/03/29 04:58:03;;;;;;;77.97;41.60;;;11.10;89.90;;;;;;5061994;28;20299;-71
2022/03/29 05:00:31;;;;;;;89.07;43.80;;;11.10;89.80;;;;;;5064870;28;20222;-71
2022/03/29 05:02:58;;;;;;;82.67;43.87;;;11.10;89.80;;;;;;5074668;28;20197;-71
2022/03/29 05:05:25;;;;;;;81.23;41.77;;;11.10;89.80;;;;;;5067266;28;20204;-71
2022/03/29 05:07:52;;;;;;;75.33;45.30;;;11.20;89.80;;;;;;5064395;28;20297;-71
2022/03/29 05:10:20;;;;;;;83.77;45.87;;;11.10;89.80;;;;;;5073489;28;20249;-71
2022/03/29 05:12:49;;;;;;;86.27;43.87;;;11.20;89.80;;;;;;5057229;28;20204;-71
2022/03/29 05:15:18;;;;;;;75.47;43.77;;;11.20;89.80;;;;;;5072604;28;20243;-71
2022/03/29 05:17:46;;;;;;;71.43;44.57;;;11.20;89.80;;;;;;5057342;28;20282;-71
2022/03/29 05:20:14;;;;;;;82.27;45.60;;;11.30;90.00;;;;;;5059749;28;20296;-71
2022/03/29 05:22:50;;;;;;;86.50;44.80;;;11.20;89.80;;;;;;5062682;28;20220;-71
2022/03/29 05:25:19;;;;;;;94.00;44.57;;;11.30;89.60;;;;;;5046117;28;20298;-71
2022/03/29 05:27:46;;;;;;;96.17;46.20;;;11.30;89.30;;;;;;5063089;28;20282;-71
2022/03/29 05:30:14;;;;;;;88.03;44.90;;;11.30;89.30;;;;;;5065729;28;20238;-71
2022/03/29 05:32:42;;;;;;;101.03;46.33;;;11.30;89.20;;;;;;5071389;28;20236;-69
2022/03/29 05:35:11;;;;;;;92.93;44.10;;;11.30;89.20;;;;;;5072843;28;20204;-69
2022/03/29 05:37:40;;;;;;;90.30;48.70;;;11.30;89.10;;;;;;5065689;28;20292;-69
2022/03/29 05:40:09;;;;;;;83.53;44.77;;;11.30;89.10;;;;;;5059872;28;20281;-69
2022/03/29 05:42:41;;;;;;;91.13;45.73;;;11.30;89.20;;;;;;5057422;28;20198;-69
2022/03/29 05:45:09;;;;;;;95.23;46.23;;;11.30;89.50;;;;;;5060529;28;20197;-69
2022/03/29 05:50:22;;;;;;;83.27;44.97;;;11.40;89.80;;;;;;5073236;28;20645;-69
2022/03/29 05:52:49;;;;;;;88.80;46.07;;;11.40;89.80;;;;;;5058935;28;20260;-70
2022/03/29 05:55:16;;;;;;;88.63;46.77;;;11.40;89.80;;;;;;5061963;28;20291;-70
2022/03/29 05:57:44;;;;;;;93.90;47.93;;;11.50;89.80;;;;;;5060296;28;20309;-70
2022/03/29 06:00:12;;;;;;;94.37;47.73;;;11.50;89.70;;;;;;5064349;28;20265;-70
2022/03/29 06:02:45;;;;;;;94.63;48.77;;;11.50;89.60;;;;;;5062250;28;20206;-70
2022/03/29 06:05:12;;;;;;;93.43;48.73;;;11.50;89.60;;;;;;5070645;28;20628;-70
2022/03/29 06:07:39;;;;;;;106.03;49.93;;;11.50;89.60;;;;;;5073361;28;20199;-70
2022/03/29 06:10:07;;;;;;;99.90;48.00;;;11.60;89.80;;;;;;5066567;28;20347;-68
2022/03/29 06:12:36;;;;;;;85.80;46.57;;;11.60;90.00;;;;;;5058784;28;20289;-70
2022/03/29 06:15:11;;;;;;;96.77;46.20;;;11.60;90.00;;;;;;5054470;28;20205;-70
2022/03/29 06:17:39;;;;;;;90.23;48.30;;;11.70;90.00;;;;;;5072204;28;20597;-70
2022/03/29 06:20:09;;;;;;;77.60;45.40;;;11.70;90.00;;;;;;5070259;28;20637;-70
2022/03/29 06:22:40;;;;;;;76.07;42.90;;;11.80;90.00;;;;;;5067216;28;20195;-70
2022/03/29 06:25:08;;;;;;;78.33;45.07;;;11.90;90.00;;;;;;5057593;28;20223;-70
2022/03/29 06:27:35;;;;;;;76.50;46.40;;;12.00;90.10;;;;;;5065086;28;20199;-70
2022/03/29 06:30:04;;;;;;;70.37;43.93;;;12.00;90.10;;;;;;5079127;28;20238;-70
2022/03/29 06:32:32;;;;;;;74.50;44.80;;;12.10;90.20;;;;;;5050696;28;20225;-70
2022/03/29 06:34:59;;;;;;;71.83;45.17;;;12.20;90.30;;;;;;5058819;28;20644;-70
2022/03/29 06:37:27;;;;;;;61.00;43.17;;;12.30;90.40;;;;;;5073376;28;20212;-70
2022/03/29 06:39:54;;;;;;;62.50;42.43;;;12.40;90.40;;;;;;5068825;28;20226;-70
2022/03/29 06:42:21;;;;;;;64.33;44.53;;;12.40;90.50;;;;;;5065338;28;20239;-70
2022/03/29 06:44:48;;;;;;;65.90;44.23;;;12.50;90.70;;;;;;5061389;28;20213;-70
2022/03/29 06:47:16;;;;;;;60.77;43.33;;;12.50;90.80;;;;;;5058281;28;20209;-70
2022/03/29 06:49:43;;;;;;;63.37;43.97;;;12.50;91.00;;;;;;5062322;28;20207;-70
2022/03/29 06:52:10;;;;;;;57.27;42.27;;;12.50;91.10;;;;;;5060661;28;20297;-70
2022/03/29 06:54:38;;;;;;;57.50;40.57;;;12.60;91.40;;;;;;5056792;28;20209;-70
2022/03/29 06:57:06;;;;;;;58.93;41.57;;;12.60;91.40;;;;;;5071162;28;20302;-70
2022/03/29 06:59:33;;;;;;;55.90;41.23;;;12.60;91.50;;;;;;5072809;28;20232;-70
2022/03/29 07:02:13;;;;;;;54.57;39.67;;;12.60;91.40;;;;;;5059814;28;20197;-70
2022/03/29 07:04:42;;;;;;;55.20;37.90;;;12.60;91.40;;;;;;5057991;28;20203;-70
2022/03/29 07:07:09;;;;;;;54.10;37.63;;;12.70;91.40;;;;;;5067475;28;20283;-70
2022/03/29 07:12:22;;;;;;;57.33;39.60;;;12.70;91.20;;;;;;5066479;28;20213;-70
2022/03/29 07:14:50;;;;;;;48.03;37.80;;;12.80;91.20;;;;;;5063878;28;20213;-70
2022/03/29 07:17:18;;;;;;;54.60;37.50;;;12.80;91.20;;;;;;5064094;28;20211;-70
2022/03/29 07:19:46;;;;;;;49.20;36.83;;;12.90;91.10;;;;;;5059288;28;20221;-70
2022/03/29 07:22:13;;;;;;;54.00;36.90;;;13.00;91.00;;;;;;5066078;28;20259;-70
2022/03/29 07:24:40;;;;;;;52.87;38.67;;;13.00;90.80;;;;;;5065340;28;20217;-70
2022/03/29 07:27:08;;;;;;;48.20;37.97;;;13.10;90.60;;;;;;5070572;28;20203;-70
2022/03/29 07:29:36;;;;;;;50.37;35.97;;;13.10;90.50;;;;;;5068249;28;20294;-70
2022/03/29 07:32:04;;;;;;;49.37;36.67;;;13.10;90.40;;;;;;5073971;28;20240;-70
2022/03/29 07:34:35;;;;;;;41.57;34.27;;;13.20;90.40;;;;;;5074410;28;20296;-70
2022/03/29 07:37:03;;;;;;;49.50;34.87;;;13.30;90.10;;;;;;5066204;28;20209;-70
2022/03/29 07:39:30;;;;;;;54.37;36.80;;;13.30;89.40;;;;;;5069200;28;20237;-70
2022/03/29 07:41:57;;;;;;;49.17;36.23;;;13.40;90.10;;;;;;5073135;28;20295;-70
2022/03/29 07:44:25;;;;;;;42.10;32.40;;;13.40;89.60;;;;;;5069886;28;20631;-70
2022/03/29 07:46:52;;;;;;;45.23;33.83;;;13.50;89.30;;;;;;5063860;28;20220;-70
2022/03/29 07:49:19;;;;;;;37.50;28.53;;;13.60;88.50;;;;;;5059474;28;20244;-70
2022/03/29 07:52:06;;;;;;;40.57;28.33;;;13.70;87.20;;;;;;5063174;28;20216;-70
2022/03/29 07:54:33;;;;;;;44.33;31.97;;;13.80;87.10;;;;;;5075624;28;20202;-70
2022/03/29 07:57:01;;;;;;;43.53;32.40;;;13.90;86.40;;;;;;5068426;28;20222;-70
2022/03/29 07:59:28;;;;;;;40.63;31.73;;;14.00;86.40;;;;;;5070510;28;20276;-70
2022/03/29 08:01:55;;;;;;;43.77;31.83;;;14.10;85.90;;;;;;5062457;28;20527;-70
2022/03/29 08:04:23;;;;;;;34.83;26.37;;;14.20;85.90;;;;;;5069266;28;20207;-70
2022/03/29 08:06:50;;;;;;;33.03;26.87;;;14.30;84.90;;;;;;5073410;28;20599;-71
2022/03/29 08:09:17;;;;;;;36.53;28.67;;;14.30;84.50;;;;;;5064723;28;20320;-71
2022/03/29 08:11:44;;;;;;;31.57;24.47;;;14.40;83.70;;;;;;5067433;28;20256;-71
2022/03/29 08:14:12;;;;;;;32.37;26.13;;;14.40;83.10;;;;;;5079654;28;20212;-71
2022/03/29 08:16:40;;;;;;;35.80;26.80;;;14.40;83.10;;;;;;5069005;28;20299;-71
2022/03/29 08:19:08;;;;;;;39.30;27.80;;;14.50;82.90;;;;;;5061990;28;20203;-71
2022/03/29 08:21:50;;;;;;;34.60;26.60;;;14.50;82.30;;;;;;5057345;28;20237;-71
2022/03/29 08:24:19;;;;;;;29.50;23.63;;;14.50;83.00;;;;;;5067817;28;20209;-71
2022/03/29 08:26:48;;;;;;;37.03;25.67;;;14.60;81.90;;;;;;5062944;28;20222;-71
2022/03/29 08:29:18;;;;;;;32.30;24.80;;;14.60;81.80;;;;;;5068838;28;20199;-71
2022/03/29 08:31:47;;;;;;;31.27;24.97;;;14.80;81.20;;;;;;5073504;28;20665;-71
2022/03/29 08:34:16;;;;;;;34.90;25.83;;;14.80;80.90;;;;;;5058777;28;20613;-71
2022/03/29 08:36:43;;;;;;;36.27;25.93;;;14.90;80.30;;;;;;5075347;28;20212;-71
2022/03/29 08:39:11;;;;;;;31.77;23.97;;;14.90;80.30;;;;;;5071270;28;20208;-71
2022/03/29 08:41:44;;;;;;;32.97;24.03;;;15.10;80.10;;;;;;5071104;28;20741;-71
2022/03/29 08:44:11;;;;;;;31.23;24.27;;;15.20;79.50;;;;;;5073924;28;20201;-71
2022/03/29 08:46:41;;;;;;;32.10;25.17;;;15.30;78.90;;;;;;5065064;28;20210;-71
2022/03/29 08:49:10;;;;;;;30.23;24.30;;;15.50;78.20;;;;;;5070609;28;20582;-71
2022/03/29 08:51:38;;;;;;;33.83;24.93;;;15.50;76.90;;;;;;5058531;28;20244;-71
2022/03/29 08:54:06;;;;;;;30.80;24.33;;;15.60;76.90;;;;;;5055637;28;20245;-71
2022/03/29 08:56:33;;;;;;;30.10;24.83;;;15.70;77.20;;;;;;5063290;28;20289;-71
2022/03/29 08:59:01;;;;;;;30.70;25.03;;;15.90;76.20;;;;;;5065305;28;20247;-71
2022/03/29 09:01:28;;;;;;;33.27;25.53;;;16.00;75.40;;;;;;5073803;28;20225;-71
2022/03/29 09:04:14;;;;;;;33.97;24.40;;;16.10;74.00;;;;;;5068080;28;20222;-71
2022/03/29 09:07:02;;;;;;;31.73;25.20;;;16.30;73.60;;;;;;5063177;28;20225;-71
2022/03/29 09:09:36;;;;;;;32.63;25.93;;;16.50;73.10;;;;;;5074298;28;20245;-72
2022/03/29 09:12:18;;;;;;;32.33;25.27;;;16.60;70.60;;;;;;5060875;28;20280;-71
2022/03/29 09:14:51;;;;;;;31.00;23.80;;;16.60;69.70;;;;;;5059727;28;20213;-71
2022/03/29 09:17:32;;;;;;;31.53;24.43;;;16.50;69.80;;;;;;5063070;28;20301;-71
2022/03/29 09:20:21;;;;;;;34.80;27.03;;;16.60;71.50;;;;;;5062660;28;20306;-71
2022/03/29 09:22:52;;;;;;;34.30;25.23;;;16.70;69.80;;;;;;5068605;28;20209;-71
2022/03/29 09:25:22;;;;;;;31.77;25.37;;;16.90;70.70;;;;;;5074280;28;20281;-71
2022/03/29 09:27:54;;;;;;;35.20;25.73;;;17.10;69.50;;;;;;5065792;28;20528;-71
2022/03/29 09:30:23;;;;;;;34.10;25.77;;;17.20;67.70;;;;;;5069069;28;20234;-71
2022/03/29 09:32:58;;;;;;;32.57;24.93;;;17.20;68.60;;;;;;5066434;28;20210;-71
2022/03/29 09:35:25;;;;;;;30.17;25.27;;;17.20;67.60;;;;;;5063104;28;20288;-71
2022/03/29 09:37:53;;;;;;;32.47;25.37;;;17.20;67.20;;;;;;5067746;28;20237;-70
2022/03/29 09:40:20;;;;;;;35.80;26.07;;;17.10;68.10;;;;;;5072503;28;20226;-70
2022/03/29 09:43:10;;;;;;;34.07;25.70;;;17.20;68.60;;;;;;5070109;28;20241;-70
2022/03/29 09:45:43;;;;;;;42.20;25.17;;;17.30;67.10;;;;;;5044304;28;20211;-70
2022/03/29 09:48:27;;;;;;;34.63;24.30;;;17.30;67.00;;;;;;5061536;28;20579;-70
2022/03/29 09:51:16;;;;;;;32.07;25.57;;;17.50;68.30;;;;;;5060098;28;20607;-71
2022/03/29 09:53:52;;;;;;;30.57;24.87;;;17.60;66.20;;;;;;5067154;28;20223;-71
2022/03/29 09:56:26;;;;;;;32.37;23.43;;;17.70;65.60;;;;;;5072174;28;20641;-71
2022/03/29 09:59:14;;;;;;;31.87;23.53;;;17.70;65.70;;;;;;5043083;28;20614;-71
2022/03/29 10:01:51;;;;;;;30.07;23.50;;;17.70;63.50;;;;;;5066826;28;20344;-71
2022/03/29 10:04:19;;;;;;;29.27;23.77;;;17.70;64.70;;;;;;5053797;28;20202;-71
2022/03/29 10:06:54;;;;;;;35.23;24.97;;;17.70;64.10;;;;;;5064051;28;20198;-71
2022/03/29 10:09:33;;;;;;;33.60;24.00;;;17.70;64.20;;;;;;5062139;28;20226;-71
2022/03/29 10:12:05;;;;;;;32.47;25.00;;;17.70;65.30;;;;;;5071738;28;20221;-71
2022/03/29 10:14:40;;;;;;;29.77;24.30;;;17.80;64.70;;;;;;5062850;28;20660;-71
2022/03/29 10:17:08;;;;;;;30.33;23.90;;;17.70;65.20;;;;;;5062290;28;20292;-71
2022/03/29 10:19:39;;;;;;;30.43;23.00;;;17.80;65.50;;;;;;5067596;28;20213;-71
2022/03/29 10:22:06;;;;;;;31.37;24.03;;;17.80;65.40;;;;;;5071267;28;20674;-71
2022/03/29 10:24:34;;;;;;;31.37;23.40;;;18.00;65.30;;;;;;5062270;28;20199;-71
2022/03/29 10:27:01;;;;;;;28.67;22.00;;;18.20;64.40;;;;;;5055344;28;20214;-71
2022/03/29 10:29:30;;;;;;;31.53;22.77;;;18.30;64.10;;;;;;5056615;28;20673;-70
2022/03/29 10:32:01;;;;;;;28.87;23.50;;;18.30;61.70;;;;;;5061534;28;20232;-70
2022/03/29 10:34:30;;;;;;;27.63;22.40;;;18.30;61.60;;;;;;5068158;28;20207;-70
2022/03/29 10:37:03;;;;;;;26.93;21.63;;;18.30;61.90;;;;;;5059794;28;20221;-70
2022/03/29 10:39:51;;;;;;;26.10;22.33;;;18.30;62.50;;;;;;5059878;28;20206;-70
2022/03/29 10:42:41;;;;;;;25.87;21.80;;;18.30;61.00;;;;;;5054329;28;20257;-70
2022/03/29 10:45:23;;;;;;;28.70;21.77;;;18.30;61.80;;;;;;5056273;28;20211;-70
2022/03/29 10:48:02;;;;;;;28.77;21.83;;;18.40;61.80;;;;;;5061755;28;20635;-70
2022/03/29 10:50:53;;;;;;;27.27;21.90;;;18.50;60.10;;;;;;5073526;28;20204;-70
2022/03/29 10:53:26;;;;;;;24.07;19.97;;;18.50;60.20;;;;;;5069420;28;20209;-70
2022/03/29 10:56:15;;;;;;;28.70;22.23;;;18.60;60.90;;;;;;5060543;28;20196;-70
2022/03/29 10:59:01;;;;;;;27.53;20.37;;;18.60;60.50;;;;;;5061659;28;20199;-70
2022/03/29 11:01:29;;;;;;;21.87;19.00;;;18.80;59.90;;;;;;5059732;28;20232;-70
2022/03/29 11:04:00;;;;;;;23.00;19.37;;;18.80;58.20;;;;;;5067170;28;20200;-70
2022/03/29 11:06:27;;;;;;;28.17;19.13;;;18.70;58.30;;;;;;5071472;28;20200;-70
2022/03/29 11:09:17;;;;;;;26.83;20.03;;;18.70;57.50;;;;;;5076375;28;20316;-70
2022/03/29 11:11:51;;;;;;;25.33;20.67;;;18.70;58.00;;;;;;5063620;28;20639;-70
2022/03/29 11:14:39;;;;;;;22.20;19.67;;;18.80;58.30;;;;;;5072585;28;20213;-70
2022/03/29 11:17:09;;;;;;;23.70;18.93;;;18.80;58.20;;;;;;5058768;28;20212;-70
2022/03/29 11:19:56;;;;;;;25.43;19.67;;;18.90;57.60;;;;;;5065589;28;20306;-70
2022/03/29 11:22:43;;;;;;;28.40;20.00;;;19.00;59.50;;;;;;5063500;28;20679;-71
2022/03/29 11:25:14;;;;;;;26.40;19.07;;;19.10;57.90;;;;;;5063058;28;20227;-71
2022/03/29 11:27:42;;;;;;;25.07;19.47;;;19.10;58.20;;;;;;5078501;28;20214;-71
2022/03/29 11:30:11;;;;;;;27.27;20.23;;;19.20;58.90;;;;;;5060338;28;20539;-71
2022/03/29 11:32:46;;;;;;;27.87;20.37;;;19.40;57.70;;;;;;5059342;28;20217;-71
2022/03/29 11:35:19;;;;;;;22.27;19.27;;;19.40;56.40;;;;;;5065019;28;20241;-70
2022/03/29 11:37:49;;;;;;;26.73;20.57;;;19.50;56.70;;;;;;5068045;28;20625;-70
2022/03/29 11:40:19;;;;;;;23.60;17.97;;;19.50;56.50;;;;;;5056392;28;20202;-70
2022/03/29 11:42:50;;;;;;;26.00;19.63;;;19.60;56.40;;;;;;5063476;28;20230;-70
2022/03/29 11:45:20;;;;;;;24.63;18.57;;;19.70;55.70;;;;;;5065448;28;20203;-70
2022/03/29 11:47:59;;;;;;;24.77;20.40;;;19.70;56.00;;;;;;5064337;28;20230;-70
2022/03/29 11:50:31;;;;;;;28.40;19.13;;;19.80;56.00;;;;;;5063127;28;20527;-70
2022/03/29 11:52:59;;;;;;;22.77;17.93;;;19.90;56.10;;;;;;5069570;28;20204;-70
2022/03/29 11:55:30;;;;;;;24.90;18.00;;;20.10;55.60;;;;;;5075231;28;20664;-70
2022/03/29 11:57:57;;;;;;;22.60;18.20;;;20.20;53.10;;;;;;5063529;28;20238;-70
2022/03/29 12:00:27;;;;;;;27.07;17.43;;;20.20;53.70;;;;;;5067880;28;20206;-70
2022/03/29 12:02:55;;;;;;;24.43;18.53;;;20.30;52.10;;;;;;5073061;28;20199;-70
2022/03/29 12:05:23;;;;;;;22.37;17.50;;;20.30;53.20;;;;;;5074268;28;20203;-70
2022/03/29 12:08:03;;;;;;;22.23;16.80;;;20.50;52.20;;;;;;5064856;28;20522;-70
2022/03/29 12:10:34;;;;;;;18.70;15.93;;;20.60;51.00;;;;;;5061362;28;20237;-70
2022/03/29 12:13:03;;;;;;;21.37;16.73;;;20.70;50.50;;;;;;5055800;28;20622;-70
2022/03/29 12:15:30;;;;;;;23.67;17.07;;;20.60;50.10;;;;;;5064775;28;20198;-71
2022/03/29 12:20:48;;;;;;;25.67;16.97;;;20.40;50.00;;;;;;5064573;28;20205;-71
2022/03/29 12:23:24;;;;;;;19.57;16.63;;;20.40;50.40;;;;;;5068062;28;20531;-70
2022/03/29 12:25:51;;;;;;;23.20;16.60;;;20.30;50.20;;;;;;5061060;28;20212;-70
2022/03/29 12:28:19;;;;;;;25.40;16.60;;;20.40;51.00;;;;;;5072934;28;20267;-70
2022/03/29 12:30:47;;;;;;;18.70;15.53;;;20.40;50.20;;;;;;5085043;28;20205;-70
2022/03/29 12:33:15;;;;;;;25.23;17.37;;;20.50;47.80;;;;;;5069292;28;20197;-70
2022/03/29 12:35:42;;;;;;;21.20;16.40;;;20.60;48.30;;;;;;5070834;28;20223;-70
2022/03/29 12:38:12;;;;;;;17.80;15.83;;;20.60;47.90;;;;;;5062063;28;20205;-70
2022/03/29 12:40:39;;;;;;;19.17;15.63;;;20.70;49.40;;;;;;5067704;28;20205;-70
2022/03/29 12:43:08;;;;;;;20.73;16.43;;;20.80;47.50;;;;;;5045657;28;20526;-70
2022/03/29 12:45:41;;;;;;;22.00;16.27;;;20.80;47.20;;;;;;5080440;28;20226;-70
2022/03/29 12:48:09;;;;;;;19.50;15.60;;;20.70;48.40;;;;;;5067165;28;20205;-70
2022/03/29 12:50:36;;;;;;;18.57;15.30;;;20.60;48.60;;;;;;5060431;28;20736;-70